PWSweather.com
Personal Weather Stations
Station Observations
KMNGREYC2
Grey Cloud Island, Grey Cloud Island, MN 55071

Grey Cloud IslandGrey Cloud Island, MN 55071

Lat: 44.799333, Lon: -92.987851

Elevation: 700

Station Type: Davis VP2

www.jagielski.com/weather/conditions.htm

High Low Average
Temperature 90.2°F32.3°C 66.0°F18.9°C 77.6°F25.3°C
Dew Point 77.2°F25.1°C 64.2°F17.9°C 71.5°F21.9°C
Winds 9.0 mph 14.5 kmh Calm Calm Calm SSECalm SSE
Wind Gusts 9.0 mph14.5 kmh -- 3.0 mph4.8 kmh
Humidity 97% 61% 83%
Pressure 29.98 in1015.2 mb 29.82 in1009.8 mb -
Precipitation 0.00 in0.0 mm - -
Hour Temp Dew Point Humidity Winds Wind Gusts Pressure Precip Precip Rate Daily Precip Total
12:00 AM 68.9°F20.5°C 66.2°F19.0°C 91% Calm Calm -- 29.94 in1013.9 mb 0.00 in0.0 mm 0.00 in0.0 mm 0.00 in0.0 mm
12:15 AM 68.5°F20.3°C 65.8°F18.8°C 91% Calm Calm -- 29.94 in1013.9 mb 0.00 in0.0 mm 0.00 in0.0 mm 0.00 in0.0 mm
12:30 AM 68.2°F20.1°C 65.8°F18.8°C 92% Calm Calm -- 29.94 in1013.9 mb 0.00 in0.0 mm 0.00 in0.0 mm 0.00 in0.0 mm
12:45 AM 68.0°F20.0°C 65.6°F18.7°C 92% Calm Calm -- 29.95 in1014.2 mb 0.00 in0.0 mm 0.00 in0.0 mm 0.00 in0.0 mm
01:00 AM 67.7°F19.8°C 65.3°F18.5°C 92% Calm Calm -- 29.95 in1014.2 mb 0.00 in0.0 mm 0.00 in0.0 mm 0.00 in0.0 mm
01:15 AM 67.4°F19.7°C 65.3°F18.5°C 93% Calm Calm -- 29.94 in1013.9 mb 0.00 in0.0 mm 0.00 in0.0 mm 0.00 in0.0 mm
01:30 AM 67.2°F19.6°C 65.1°F18.4°C 93% Calm Calm -- 29.95 in1014.2 mb 0.00 in0.0 mm 0.00 in0.0 mm 0.00 in0.0 mm
01:45 AM 67.0°F19.4°C 64.9°F18.3°C 93% Calm Calm -- 29.95 in1014.2 mb 0.00 in0.0 mm 0.00 in0.0 mm 0.00 in0.0 mm
02:00 AM 66.9°F19.4°C 64.8°F18.2°C 93% Calm Calm -- 29.96 in1014.6 mb 0.00 in0.0 mm 0.00 in0.0 mm 0.00 in0.0 mm
02:15 AM 66.7°F19.3°C 64.6°F18.1°C 93% Calm Calm -- 29.96 in1014.6 mb 0.00 in0.0 mm 0.00 in0.0 mm 0.00 in0.0 mm
02:30 AM 66.5°F19.2°C 64.4°F18.0°C 93% Calm Calm -- 29.96 in1014.6 mb 0.00 in0.0 mm 0.00 in0.0 mm 0.00 in0.0 mm
02:45 AM 66.3°F19.1°C 64.2°F17.9°C 93% Calm Calm -- 29.96 in1014.6 mb 0.00 in0.0 mm 0.00 in0.0 mm 0.00 in0.0 mm
03:00 AM 66.2°F19.0°C 64.4°F18.0°C 94% Calm Calm -- 29.96 in1014.6 mb 0.00 in0.0 mm 0.00 in0.0 mm 0.00 in0.0 mm
03:15 AM 66.1°F18.9°C 64.3°F17.9°C 94% Calm Calm -- 29.96 in1014.6 mb 0.00 in0.0 mm 0.00 in0.0 mm 0.00 in0.0 mm
03:30 AM 66.0°F18.9°C 64.2°F17.9°C 94% Calm Calm -- 29.96 in1014.6 mb 0.00 in0.0 mm 0.00 in0.0 mm 0.00 in0.0 mm
03:45 AM 66.1°F18.9°C 64.3°F17.9°C 94% Calm Calm -- 29.96 in1014.6 mb 0.00 in0.0 mm 0.00 in0.0 mm 0.00 in0.0 mm
04:00 AM 66.3°F19.1°C 64.8°F18.2°C 95% Calm Calm -- 29.97 in1014.9 mb 0.00 in0.0 mm 0.00 in0.0 mm 0.00 in0.0 mm
04:15 AM 66.5°F19.2°C 65.0°F18.3°C 95% Calm Calm -- 29.97 in1014.9 mb 0.00 in0.0 mm 0.00 in0.0 mm 0.00 in0.0 mm
04:30 AM 66.7°F19.3°C 65.2°F18.4°C 95% Calm Calm -- 29.96 in1014.6 mb 0.00 in0.0 mm 0.00 in0.0 mm 0.00 in0.0 mm
04:45 AM 67.2°F19.6°C 66.0°F18.9°C 96% Calm Calm -- 29.97 in1014.9 mb 0.00 in0.0 mm 0.00 in0.0 mm 0.00 in0.0 mm
05:00 AM 67.4°F19.7°C 66.2°F19.0°C 96% Calm Calm -- 29.97 in1014.9 mb 0.00 in0.0 mm 0.00 in0.0 mm 0.00 in0.0 mm
05:15 AM 67.6°F19.8°C 66.4°F19.1°C 96% Calm Calm -- 29.97 in1014.9 mb 0.00 in0.0 mm 0.00 in0.0 mm 0.00 in0.0 mm
05:30 AM 67.5°F19.7°C 66.3°F19.1°C 96% Calm Calm -- 29.97 in1014.9 mb 0.02 in0.5 mm 0.08 in2.0 mm 0.02 in0.5 mm
05:45 AM 67.2°F19.6°C 65.7°F18.7°C 95% Calm Calm -- 29.97 in1014.9 mb 0.03 in0.8 mm 0.04 in1.0 mm 0.03 in0.8 mm
06:00 AM 66.9°F19.4°C 65.7°F18.7°C 96% Calm Calm -- 29.97 in1014.9 mb 0.06 in1.5 mm 0.04 in1.0 mm 0.06 in1.5 mm
06:15 AM 67.0°F19.4°C 65.8°F18.8°C 96% Calm Calm -- 29.97 in1014.9 mb 0.07 in1.8 mm 0.04 in1.0 mm 0.07 in1.8 mm
06:30 AM 67.2°F19.6°C 66.0°F18.9°C 96% Calm Calm -- 29.97 in1014.9 mb 0.07 in1.8 mm 0.00 in0.0 mm 0.07 in1.8 mm
06:45 AM 67.5°F19.7°C 66.3°F19.1°C 96% Calm Calm -- 29.98 in1015.2 mb 0.05 in1.3 mm 0.00 in0.0 mm 0.07 in1.8 mm
07:00 AM 67.7°F19.8°C 66.8°F19.3°C 97% Calm Calm -- 29.97 in1014.9 mb 0.05 in1.3 mm 0.00 in0.0 mm 0.07 in1.8 mm
07:15 AM 67.8°F19.9°C 66.9°F19.4°C 97% Calm Calm -- 29.97 in1014.9 mb 0.00 in0.0 mm 0.00 in0.0 mm 0.07 in1.8 mm
07:30 AM 68.0°F20.0°C 67.1°F19.5°C 97% Calm Calm -- 29.97 in1014.9 mb 0.00 in0.0 mm 0.00 in0.0 mm 0.07 in1.8 mm
07:45 AM 68.3°F20.2°C 67.1°F19.5°C 96% Calm Calm 5.0 mph8.0 kmh 29.97 in1014.9 mb 0.00 in0.0 mm 0.00 in0.0 mm 0.07 in1.8 mm
08:00 AM 68.6°F20.3°C 67.4°F19.7°C 96% Calm Calm 5.0 mph8.0 kmh 29.97 in1014.9 mb 0.00 in0.0 mm 0.00 in0.0 mm 0.07 in1.8 mm
08:15 AM 69.0°F20.6°C 67.8°F19.9°C 96% Calm Calm 1.0 mph1.6 kmh 29.97 in1014.9 mb 0.00 in0.0 mm 0.00 in0.0 mm 0.07 in1.8 mm
08:30 AM 69.5°F20.8°C 68.0°F20.0°C 95% Calm Calm 4.0 mph6.4 kmh 29.97 in1014.9 mb 0.00 in0.0 mm 0.00 in0.0 mm 0.07 in1.8 mm
08:45 AM 70.2°F21.2°C 68.7°F20.4°C 95% Calm Calm 3.0 mph4.8 kmh 29.97 in1014.9 mb 0.00 in0.0 mm 0.00 in0.0 mm 0.07 in1.8 mm
09:00 AM 71.1°F21.7°C 69.6°F20.9°C 95% Calm Calm 3.0 mph4.8 kmh 29.96 in1014.6 mb 0.00 in0.0 mm 0.00 in0.0 mm 0.07 in1.8 mm
09:15 AM 72.1°F22.3°C 70.3°F21.3°C 94% Calm Calm 2.0 mph3.2 kmh 29.96 in1014.6 mb 0.00 in0.0 mm 0.00 in0.0 mm 0.07 in1.8 mm
09:30 AM 73.1°F22.8°C 71.0°F21.7°C 93% Calm Calm 2.0 mph3.2 kmh 29.95 in1014.2 mb 0.00 in0.0 mm 0.00 in0.0 mm 0.07 in1.8 mm
09:45 AM 74.3°F23.5°C 72.2°F22.3°C 93% Calm Calm 3.0 mph4.8 kmh 29.95 in1014.2 mb 0.00 in0.0 mm 0.00 in0.0 mm 0.07 in1.8 mm
10:00 AM 75.6°F24.2°C 73.1°F22.8°C 92% Calm Calm 6.0 mph9.7 kmh 29.94 in1013.9 mb 0.00 in0.0 mm 0.00 in0.0 mm 0.07 in1.8 mm
10:15 AM 76.9°F24.9°C 73.8°F23.2°C 90% Calm Calm 3.0 mph4.8 kmh 29.94 in1013.9 mb 0.00 in0.0 mm 0.00 in0.0 mm 0.07 in1.8 mm
10:30 AM 78.1°F25.6°C 74.3°F23.5°C 88% 2.0 mph SSW3.2 kmh SSW 3.0 mph4.8 kmh 29.95 in1014.2 mb 0.00 in0.0 mm 0.00 in0.0 mm 0.07 in1.8 mm
10:45 AM 79.1°F26.2°C 74.9°F23.8°C 87% Calm Calm 3.0 mph4.8 kmh 29.95 in1014.2 mb 0.00 in0.0 mm 0.00 in0.0 mm 0.07 in1.8 mm
11:00 AM 80.3°F26.8°C 75.0°F23.9°C 84% 2.0 mph SW3.2 kmh SW 7.0 mph11.3 kmh 29.95 in1014.2 mb 0.00 in0.0 mm 0.00 in0.0 mm 0.07 in1.8 mm
11:15 AM 81.2°F27.3°C 75.2°F24.0°C 82% Calm Calm 4.0 mph6.4 kmh 29.94 in1013.9 mb 0.00 in0.0 mm 0.00 in0.0 mm 0.07 in1.8 mm
11:30 AM 82.1°F27.8°C 75.3°F24.1°C 80% Calm Calm 6.0 mph9.7 kmh 29.94 in1013.9 mb 0.00 in0.0 mm 0.00 in0.0 mm 0.07 in1.8 mm
11:45 AM 83.0°F28.3°C 75.4°F24.1°C 78% 4.0 mph S6.4 kmh S 4.0 mph6.4 kmh 29.94 in1013.9 mb 0.00 in0.0 mm 0.00 in0.0 mm 0.07 in1.8 mm
12:00 PM 83.7°F28.7°C 75.7°F24.3°C 77% 1.0 mph SSW1.6 kmh SSW 8.0 mph12.9 kmh 29.94 in1013.9 mb 0.00 in0.0 mm 0.00 in0.0 mm 0.07 in1.8 mm
12:15 PM 84.5°F29.2°C 76.5°F24.7°C 77% 2.0 mph WSW3.2 kmh WSW 5.0 mph8.0 kmh 29.94 in1013.9 mb 0.00 in0.0 mm 0.00 in0.0 mm 0.07 in1.8 mm
12:30 PM 85.6°F29.8°C 75.5°F24.2°C 72% 1.0 mph SW1.6 kmh SW 7.0 mph11.3 kmh 29.93 in1013.5 mb 0.00 in0.0 mm 0.00 in0.0 mm 0.07 in1.8 mm
12:45 PM 86.3°F30.2°C 75.8°F24.3°C 71% Calm Calm 4.0 mph6.4 kmh 29.93 in1013.5 mb 0.00 in0.0 mm 0.00 in0.0 mm 0.07 in1.8 mm
01:00 PM 86.8°F30.4°C 75.4°F24.1°C 69% 2.0 mph SSW3.2 kmh SSW 4.0 mph6.4 kmh 29.92 in1013.2 mb 0.00 in0.0 mm 0.00 in0.0 mm 0.07 in1.8 mm
01:15 PM 87.3°F30.7°C 76.8°F24.9°C 71% Calm Calm 6.0 mph9.7 kmh 29.92 in1013.2 mb 0.00 in0.0 mm 0.00 in0.0 mm 0.07 in1.8 mm
01:30 PM 87.7°F30.9°C 75.8°F24.3°C 68% Calm Calm 6.0 mph9.7 kmh 29.92 in1013.2 mb 0.00 in0.0 mm 0.00 in0.0 mm 0.07 in1.8 mm
01:45 PM 87.7°F30.9°C 74.9°F23.8°C 66% Calm Calm 3.0 mph4.8 kmh 29.90 in1012.5 mb 0.00 in0.0 mm 0.00 in0.0 mm 0.07 in1.8 mm
02:00 PM 87.7°F30.9°C 76.3°F24.6°C 69% 1.0 mph SW1.6 kmh SW 7.0 mph11.3 kmh 29.90 in1012.5 mb 0.00 in0.0 mm 0.00 in0.0 mm 0.07 in1.8 mm
02:15 PM 88.3°F31.3°C 76.0°F24.4°C 67% Calm Calm 6.0 mph9.7 kmh 29.90 in1012.5 mb 0.00 in0.0 mm 0.00 in0.0 mm 0.07 in1.8 mm
02:30 PM 88.8°F31.6°C 76.0°F24.4°C 66% Calm Calm 6.0 mph9.7 kmh 29.89 in1012.2 mb 0.00 in0.0 mm 0.00 in0.0 mm 0.07 in1.8 mm
02:45 PM 88.7°F31.5°C 77.2°F25.1°C 69% Calm Calm 5.0 mph8.0 kmh 29.89 in1012.2 mb 0.00 in0.0 mm 0.00 in0.0 mm 0.07 in1.8 mm
03:00 PM 88.9°F31.6°C 75.6°F24.2°C 65% Calm Calm 5.0 mph8.0 kmh 29.89 in1012.2 mb 0.00 in0.0 mm 0.00 in0.0 mm 0.07 in1.8 mm
03:15 PM 89.1°F31.7°C 76.7°F24.8°C 67% 3.0 mph S4.8 kmh S 5.0 mph8.0 kmh 29.90 in1012.5 mb 0.00 in0.0 mm 0.00 in0.0 mm 0.07 in1.8 mm
03:30 PM 89.7°F32.1°C 76.4°F24.7°C 65% Calm Calm 5.0 mph8.0 kmh 29.89 in1012.2 mb 0.00 in0.0 mm 0.00 in0.0 mm 0.07 in1.8 mm
03:45 PM 89.8°F32.1°C 76.0°F24.4°C 64% Calm Calm 3.0 mph4.8 kmh 29.88 in1011.9 mb 0.00 in0.0 mm 0.00 in0.0 mm 0.07 in1.8 mm
04:00 PM 89.9°F32.2°C 76.1°F24.5°C 64% Calm Calm 6.0 mph9.7 kmh 29.88 in1011.9 mb 0.00 in0.0 mm 0.00 in0.0 mm 0.07 in1.8 mm
04:15 PM 90.2°F32.3°C 75.4°F24.1°C 62% 3.0 mph WSW4.8 kmh WSW 3.0 mph4.8 kmh 29.87 in1011.5 mb 0.00 in0.0 mm 0.00 in0.0 mm 0.07 in1.8 mm
04:30 PM 90.2°F32.3°C 74.9°F23.8°C 61% Calm Calm 7.0 mph11.3 kmh 29.87 in1011.5 mb 0.00 in0.0 mm 0.00 in0.0 mm 0.07 in1.8 mm
04:45 PM 90.2°F32.3°C 75.4°F24.1°C 62% Calm Calm 5.0 mph8.0 kmh 29.86 in1011.2 mb 0.00 in0.0 mm 0.00 in0.0 mm 0.07 in1.8 mm
05:00 PM 89.9°F32.2°C 74.7°F23.7°C 61% 4.0 mph S6.4 kmh S 7.0 mph11.3 kmh 29.85 in1010.8 mb 0.00 in0.0 mm 0.00 in0.0 mm 0.07 in1.8 mm
05:15 PM 89.5°F31.9°C 75.3°F24.1°C 63% 9.0 mph SSW14.5 kmh SSW 9.0 mph14.5 kmh 29.85 in1010.8 mb 0.00 in0.0 mm 0.00 in0.0 mm 0.07 in1.8 mm
05:30 PM 89.2°F31.8°C 75.4°F24.1°C 64% Calm Calm 9.0 mph14.5 kmh 29.84 in1010.5 mb 0.00 in0.0 mm 0.00 in0.0 mm 0.07 in1.8 mm
05:45 PM 88.8°F31.6°C 74.6°F23.7°C 63% 3.0 mph SSW4.8 kmh SSW 5.0 mph8.0 kmh 29.84 in1010.5 mb 0.00 in0.0 mm 0.00 in0.0 mm 0.07 in1.8 mm
06:00 PM 88.5°F31.4°C 74.3°F23.5°C 63% Calm Calm 7.0 mph11.3 kmh 29.84 in1010.5 mb 0.00 in0.0 mm 0.00 in0.0 mm 0.07 in1.8 mm
06:15 PM 87.9°F31.1°C 73.7°F23.2°C 63% Calm Calm 8.0 mph12.9 kmh 29.83 in1010.2 mb 0.00 in0.0 mm 0.00 in0.0 mm 0.07 in1.8 mm
06:30 PM 87.4°F30.8°C 74.7°F23.7°C 66% Calm Calm 8.0 mph12.9 kmh 29.83 in1010.2 mb 0.00 in0.0 mm 0.00 in0.0 mm 0.07 in1.8 mm
06:45 PM 86.8°F30.4°C 75.0°F23.9°C 68% Calm Calm 6.0 mph9.7 kmh 29.82 in1009.8 mb 0.00 in0.0 mm 0.00 in0.0 mm 0.07 in1.8 mm
07:00 PM 86.5°F30.3°C 74.7°F23.7°C 68% Calm Calm 6.0 mph9.7 kmh 29.82 in1009.8 mb 0.00 in0.0 mm 0.00 in0.0 mm 0.07 in1.8 mm
07:15 PM 86.5°F30.3°C 75.1°F23.9°C 69% Calm Calm 5.0 mph8.0 kmh 29.82 in1009.8 mb 0.00 in0.0 mm 0.00 in0.0 mm 0.07 in1.8 mm
07:30 PM 86.2°F30.1°C 74.4°F23.6°C 68% 2.0 mph S3.2 kmh S 5.0 mph8.0 kmh 29.82 in1009.8 mb 0.00 in0.0 mm 0.00 in0.0 mm 0.07 in1.8 mm
07:45 PM 85.7°F29.8°C 74.8°F23.8°C 70% Calm Calm 2.0 mph3.2 kmh 29.82 in1009.8 mb 0.00 in0.0 mm 0.00 in0.0 mm 0.07 in1.8 mm
08:00 PM 85.0°F29.4°C 75.4°F24.1°C 73% Calm Calm 2.0 mph3.2 kmh 29.82 in1009.8 mb 0.00 in0.0 mm 0.00 in0.0 mm 0.07 in1.8 mm
08:15 PM 84.1°F28.9°C 75.3°F24.1°C 75% Calm Calm -- 29.82 in1009.8 mb 0.00 in0.0 mm 0.00 in0.0 mm 0.07 in1.8 mm
08:30 PM 83.2°F28.4°C 75.6°F24.2°C 78% Calm Calm -- 29.82 in1009.8 mb 0.00 in0.0 mm 0.00 in0.0 mm 0.07 in1.8 mm
08:45 PM 82.2°F27.9°C 75.8°F24.3°C 81% Calm Calm -- 29.82 in1009.8 mb 0.00 in0.0 mm 0.00 in0.0 mm 0.07 in1.8 mm
09:00 PM 81.4°F27.4°C 76.1°F24.5°C 84% Calm Calm -- 29.83 in1010.2 mb 0.00 in0.0 mm 0.00 in0.0 mm 0.07 in1.8 mm
09:15 PM 80.5°F26.9°C 75.6°F24.2°C 85% Calm Calm -- 29.83 in1010.2 mb 0.00 in0.0 mm 0.00 in0.0 mm 0.07 in1.8 mm
09:30 PM 79.8°F26.6°C 75.6°F24.2°C 87% Calm Calm -- 29.84 in1010.5 mb 0.00 in0.0 mm 0.00 in0.0 mm 0.07 in1.8 mm
09:45 PM 79.4°F26.3°C 75.5°F24.2°C 88% Calm Calm -- 29.84 in1010.5 mb 0.00 in0.0 mm 0.00 in0.0 mm 0.07 in1.8 mm
10:00 PM 78.8°F26.0°C 75.3°F24.1°C 89% Calm Calm -- 29.84 in1010.5 mb 0.00 in0.0 mm 0.00 in0.0 mm 0.07 in1.8 mm
10:15 PM 78.2°F25.7°C 75.0°F23.9°C 90% Calm Calm -- 29.82 in1009.8 mb 0.00 in0.0 mm 0.00 in0.0 mm 0.07 in1.8 mm
10:30 PM 77.9°F25.5°C 75.1°F23.9°C 91% Calm Calm -- 29.83 in1010.2 mb 0.00 in0.0 mm 0.00 in0.0 mm 0.07 in1.8 mm
10:45 PM 77.6°F25.3°C 75.1°F23.9°C 92% Calm Calm -- 29.84 in1010.5 mb 0.00 in0.0 mm 0.00 in0.0 mm 0.07 in1.8 mm
11:00 PM 77.2°F25.1°C 74.7°F23.7°C 92% 2.0 mph W3.2 kmh W 6.0 mph9.7 kmh 29.85 in1010.8 mb 0.00 in0.0 mm 0.00 in0.0 mm 0.07 in1.8 mm
11:15 PM 75.5°F24.2°C 71.0°F21.7°C 86% Calm Calm 6.0 mph9.7 kmh 29.87 in1011.5 mb 0.00 in0.0 mm 0.00 in0.0 mm 0.07 in1.8 mm
11:30 PM 74.6°F23.7°C 70.1°F21.2°C 86% 1.0 mph NE1.6 kmh NE 6.0 mph9.7 kmh 29.90 in1012.5 mb 0.00 in0.0 mm 0.00 in0.0 mm 0.07 in1.8 mm
11:45 PM 73.6°F23.1°C 69.8°F21.0°C 88% Calm Calm 2.0 mph3.2 kmh 29.89 in1012.2 mb 0.09 in2.3 mm 0.36 in9.1 mm 0.16 in4.1 mm